Time;durP1;ratioP1;P1;durP2;ratioP2;P2;SDS_P1;SDS_P2;PMS_P1;PMS_P2;Temp;Humidity;BMP_temperature;BMP_pressure;BME280_temperature;BME280_humidity;BME280_pressure;Samples;Min_cycle;Max_cycle;Signal;HPM_P1;HPM_P2
2023/04/07 00:01:22;;;;;;;31.80;14.65;;;6.80;99.90;;;;;;5031555;28;20030;-72
2023/04/07 00:03:48;;;;;;;27.88;14.10;;;6.80;99.90;;;;;;5031231;28;20021;-73
2023/04/07 00:06:13;;;;;;;31.10;15.00;;;6.80;99.90;;;;;;5030468;28;20398;-73
2023/04/07 00:08:40;;;;;;;27.85;14.70;;;6.70;99.90;;;;;;5031081;28;20049;-73
2023/04/07 00:11:06;;;;;;;27.02;14.80;;;6.70;99.90;;;;;;5030485;28;20026;-74
2023/04/07 00:13:31;;;;;;;26.90;14.52;;;6.70;99.90;;;;;;5030468;28;20031;-74
2023/04/07 00:15:57;;;;;;;26.50;14.45;;;6.70;99.90;;;;;;5031224;28;20036;-73
2023/04/07 00:18:22;;;;;;;30.52;15.00;;;6.60;99.90;;;;;;5030518;28;20048;-73
2023/04/07 00:20:49;;;;;;;31.40;15.02;;;6.60;99.90;;;;;;5031185;28;20068;-73
2023/04/07 00:23:15;;;;;;;30.20;15.32;;;6.60;99.90;;;;;;5029947;28;20025;-72
2023/04/07 00:25:40;;;;;;;26.48;14.38;;;6.60;99.90;;;;;;5030874;28;20022;-72
2023/04/07 00:28:06;;;;;;;32.50;13.63;;;6.50;99.90;;;;;;5030863;28;20029;-73
2023/04/07 00:30:31;;;;;;;26.55;14.43;;;6.50;99.90;;;;;;5030318;28;20060;-73
2023/04/07 00:32:57;;;;;;;26.58;14.82;;;6.50;99.90;;;;;;5030737;28;20032;-73
2023/04/07 00:35:22;;;;;;;27.02;15.30;;;6.40;99.90;;;;;;5031309;28;20038;-72
2023/04/07 00:37:48;;;;;;;29.27;15.13;;;6.50;99.90;;;;;;5030066;28;20028;-72
2023/04/07 00:40:14;;;;;;;28.92;14.85;;;6.40;99.90;;;;;;5031482;28;20028;-73
2023/04/07 00:42:39;;;;;;;28.70;15.25;;;6.30;99.90;;;;;;5030639;28;20068;-71
2023/04/07 00:45:06;;;;;;;28.75;14.85;;;6.30;99.90;;;;;;5031104;28;20018;-73
2023/04/07 00:47:31;;;;;;;28.88;15.25;;;6.30;99.90;;;;;;5029626;28;20040;-73
2023/04/07 00:49:57;;;;;;;27.13;14.68;;;6.20;99.90;;;;;;5030935;28;20038;-72
2023/04/07 00:52:27;;;;;;;31.27;15.65;;;6.20;99.90;;;;;;5031323;28;20029;-72
2023/04/07 00:54:58;;;;;;;28.38;15.35;;;6.20;99.90;;;;;;5030646;28;20025;-72
2023/04/07 00:57:24;;;;;;;29.25;15.05;;;6.10;99.90;;;;;;5029053;28;20044;-71
2023/04/07 00:59:51;;;;;;;33.45;15.00;;;6.10;99.90;;;;;;5030450;28;20381;-72
2023/04/07 01:02:35;;;;;;;31.75;15.63;;;6.00;99.90;;;;;;5031170;28;20059;-72
2023/04/07 01:05:15;;;;;;;29.80;15.40;;;6.00;99.90;;;;;;5031222;28;20069;-71
2023/04/07 01:08:00;;;;;;;30.90;16.35;;;5.90;99.90;;;;;;5031252;28;20042;-72
2023/04/07 01:10:58;;;;;;;31.70;15.93;;;5.90;99.90;;;;;;5030320;28;20041;-73
2023/04/07 01:13:31;;;;;;;30.80;15.43;;;5.80;99.90;;;;;;5030971;28;20502;-72
2023/04/07 01:16:02;;;;;;;29.02;15.40;;;5.80;99.90;;;;;;5031005;28;20029;-72
2023/04/07 01:18:34;;;;;;;32.92;15.65;;;5.80;99.90;;;;;;5030209;28;20030;-74
2023/04/07 01:21:06;;;;;;;27.45;14.65;;;5.70;99.90;;;;;;5029625;28;21401;-73
2023/04/07 01:23:53;;;;;;;33.08;16.33;;;5.70;99.90;;;;;;5030516;28;20022;-72
2023/04/07 01:26:30;;;;;;;33.25;15.80;;;5.60;99.90;;;;;;5030619;28;20032;-72
2023/04/07 01:29:13;;;;;;;28.88;16.02;;;5.60;99.90;;;;;;5028399;28;20040;-72
2023/04/07 01:31:40;;;;;;;28.63;15.57;;;5.60;99.90;;;;;;5029699;28;20052;-71
2023/04/07 01:34:09;;;;;;;28.92;15.35;;;5.60;99.90;;;;;;5030553;28;20117;-72
2023/04/07 01:36:35;;;;;;;28.85;15.63;;;5.50;99.90;;;;;;5030848;28;20018;-71
2023/04/07 01:39:01;;;;;;;29.48;16.05;;;5.50;99.90;;;;;;5030291;28;20044;-72
2023/04/07 01:41:29;;;;;;;27.42;15.27;;;5.60;99.90;;;;;;5030131;28;20114;-73
2023/04/07 01:43:56;;;;;;;28.45;15.65;;;5.50;99.90;;;;;;5029590;28;20030;-73
2023/04/07 01:46:21;;;;;;;32.58;16.10;;;5.50;99.90;;;;;;5029759;28;20060;-73
2023/04/07 01:48:48;;;;;;;31.35;17.13;;;5.40;99.90;;;;;;5028432;28;20050;-72
2023/04/07 01:51:17;;;;;;;34.75;16.77;;;5.40;99.90;;;;;;5030530;28;20017;-74
2023/04/07 01:53:45;;;;;;;29.83;16.42;;;5.50;99.90;;;;;;5029009;28;20034;-71
2023/04/07 01:56:11;;;;;;;31.45;16.83;;;5.40;99.90;;;;;;5029670;28;20029;-72
2023/04/07 01:58:36;;;;;;;30.98;16.13;;;5.40;99.90;;;;;;5029740;28;20025;-70
2023/04/07 02:01:02;;;;;;;30.80;16.58;;;5.40;99.90;;;;;;5031334;28;20112;-70
2023/04/07 02:03:41;;;;;;;27.00;15.13;;;5.30;99.90;;;;;;5030274;28;20033;-70
2023/04/07 02:06:08;;;;;;;30.17;15.88;;;5.40;99.90;;;;;;5030204;28;20021;-73
2023/04/07 02:08:41;;;;;;;30.80;16.77;;;5.40;99.90;;;;;;5030828;28;20049;-71
2023/04/07 02:11:09;;;;;;;32.25;16.17;;;5.30;99.90;;;;;;5033547;28;20026;-72
2023/04/07 02:13:36;;;;;;;34.03;17.08;;;5.30;99.90;;;;;;5033776;28;20105;-72
2023/04/07 02:16:05;;;;;;;31.13;16.98;;;5.40;99.90;;;;;;5034339;28;20085;-72
2023/04/07 02:18:31;;;;;;;30.65;16.27;;;5.20;99.90;;;;;;5034446;28;20018;-72
2023/04/07 02:20:58;;;;;;;30.30;16.65;;;5.20;99.90;;;;;;5034292;28;20030;-73
2023/04/07 02:23:24;;;;;;;31.20;16.98;;;5.10;99.90;;;;;;5034667;28;20017;-70
2023/04/07 02:25:50;;;;;;;31.42;16.83;;;5.10;99.90;;;;;;5034736;28;20028;-73
2023/04/07 02:28:15;;;;;;;34.17;16.70;;;5.10;99.90;;;;;;5033356;28;20038;-72
2023/04/07 02:30:41;;;;;;;32.45;15.75;;;5.10;99.90;;;;;;5033041;28;20037;-72
2023/04/07 02:33:07;;;;;;;31.08;17.02;;;5.00;99.90;;;;;;5034570;28;20025;-73
2023/04/07 02:35:32;;;;;;;33.05;17.58;;;5.00;99.90;;;;;;5034710;28;20383;-71
2023/04/07 02:37:58;;;;;;;34.45;16.77;;;4.90;99.90;;;;;;5034320;28;20018;-72
2023/04/07 02:40:23;;;;;;;30.02;17.02;;;5.00;99.90;;;;;;5034555;28;20028;-74
2023/04/07 02:42:49;;;;;;;32.92;16.90;;;5.00;99.90;;;;;;5034554;28;20474;-70
2023/04/07 02:45:14;;;;;;;40.17;17.65;;;5.00;99.90;;;;;;5034098;28;20033;-72
2023/04/07 02:47:40;;;;;;;35.70;18.70;;;4.90;99.90;;;;;;5034454;28;20145;-72
2023/04/07 02:50:06;;;;;;;34.67;17.00;;;4.90;99.90;;;;;;5034676;28;20068;-74
2023/04/07 02:52:32;;;;;;;31.73;17.65;;;4.80;99.90;;;;;;5034339;28;20038;-72
2023/04/07 02:54:57;;;;;;;32.72;17.08;;;4.80;99.90;;;;;;5033972;28;20066;-71
2023/04/07 02:57:23;;;;;;;31.25;17.25;;;4.70;99.90;;;;;;5033969;28;20018;-73
2023/04/07 02:59:48;;;;;;;36.85;18.38;;;4.70;99.90;;;;;;5032562;28;20024;-73
2023/04/07 03:02:14;;;;;;;32.80;17.50;;;4.80;99.90;;;;;;5033016;28;20038;-73
2023/04/07 03:04:40;;;;;;;35.05;17.42;;;4.70;99.90;;;;;;5032620;28;20034;-73
2023/04/07 03:07:06;;;;;;;32.80;17.38;;;4.60;99.90;;;;;;5033917;28;20192;-73
2023/04/07 03:09:32;;;;;;;34.35;18.23;;;4.60;99.90;;;;;;5033232;28;20069;-71
2023/04/07 03:11:57;;;;;;;32.47;17.98;;;4.50;99.90;;;;;;5033823;28;20025;-72
2023/04/07 03:14:23;;;;;;;34.08;18.27;;;4.60;99.90;;;;;;5034055;28;20032;-72
2023/04/07 03:16:48;;;;;;;34.55;18.33;;;4.50;99.90;;;;;;5033615;28;20052;-71
2023/04/07 03:19:15;;;;;;;31.52;16.35;;;4.50;99.90;;;;;;5033663;28;20501;-72
2023/04/07 03:21:40;;;;;;;31.60;17.25;;;4.50;99.90;;;;;;5033227;28;20029;-73
2023/04/07 03:24:06;;;;;;;33.42;17.73;;;4.50;99.90;;;;;;5032702;28;20433;-74
2023/04/07 03:26:32;;;;;;;36.17;18.55;;;4.40;99.90;;;;;;5032258;28;20037;-72
2023/04/07 03:28:57;;;;;;;31.42;17.42;;;4.40;99.90;;;;;;5033379;28;20097;-71
2023/04/07 03:31:23;;;;;;;31.27;17.67;;;4.40;99.90;;;;;;5033597;28;20076;-73
2023/04/07 03:33:49;;;;;;;32.55;17.23;;;4.30;99.90;;;;;;5031928;28;20018;-71
2023/04/07 03:36:18;;;;;;;35.63;18.95;;;4.30;99.90;;;;;;5033032;28;20065;-73
2023/04/07 03:38:46;;;;;;;33.63;18.10;;;4.30;99.90;;;;;;5031711;28;20026;-72
2023/04/07 03:41:12;;;;;;;32.95;18.25;;;4.30;99.90;;;;;;5033262;28;20017;-71
2023/04/07 03:43:38;;;;;;;30.45;18.25;;;4.20;99.90;;;;;;5033421;28;20049;-71
2023/04/07 03:46:03;;;;;;;35.60;18.45;;;4.20;99.90;;;;;;5033551;28;20029;-71
2023/04/07 03:48:29;;;;;;;34.63;18.83;;;4.20;99.90;;;;;;5032824;28;20034;-73
2023/04/07 03:50:55;;;;;;;33.13;17.92;;;4.20;99.90;;;;;;5033056;28;20025;-73
2023/04/07 03:53:20;;;;;;;36.15;19.00;;;4.20;99.90;;;;;;5033160;28;20021;-71
2023/04/07 03:55:46;;;;;;;35.38;19.35;;;4.20;99.90;;;;;;5031576;28;20386;-73
2023/04/07 03:58:12;;;;;;;35.30;17.80;;;4.20;99.90;;;;;;5032909;28;20093;-73
2023/04/07 04:00:38;;;;;;;39.00;19.25;;;4.10;99.90;;;;;;5032438;28;20049;-72
2023/04/07 04:03:04;;;;;;;38.25;19.95;;;4.10;99.90;;;;;;5032810;28;20030;-71
2023/04/07 04:05:30;;;;;;;37.42;19.83;;;4.10;99.90;;;;;;5032086;28;20033;-72
2023/04/07 04:07:55;;;;;;;32.78;17.52;;;4.10;99.90;;;;;;5032641;28;20033;-71
2023/04/07 04:10:21;;;;;;;39.08;18.67;;;4.00;99.90;;;;;;5031627;28;20069;-72
2023/04/07 04:12:47;;;;;;;33.53;18.35;;;4.00;99.90;;;;;;5032614;28;20030;-73
2023/04/07 04:15:13;;;;;;;36.35;19.05;;;4.00;99.90;;;;;;5032364;28;20021;-73
2023/04/07 04:17:40;;;;;;;34.67;18.42;;;3.90;99.90;;;;;;5032997;28;20094;-71
2023/04/07 04:20:06;;;;;;;33.42;18.90;;;4.00;99.90;;;;;;5031382;28;20080;-73
2023/04/07 04:22:32;;;;;;;36.60;18.65;;;3.90;99.90;;;;;;5032584;28;20457;-72
2023/04/07 04:24:58;;;;;;;35.30;19.00;;;3.90;99.90;;;;;;5032640;28;20037;-73
2023/04/07 04:27:24;;;;;;;33.72;19.23;;;3.90;99.90;;;;;;5031317;28;20039;-71
2023/04/07 04:29:49;;;;;;;39.22;19.40;;;3.80;99.90;;;;;;5032145;28;20042;-74
2023/04/07 04:32:16;;;;;;;36.15;19.50;;;3.80;99.90;;;;;;5032573;28;20032;-72
2023/04/07 04:34:42;;;;;;;35.72;19.50;;;3.80;99.90;;;;;;5030326;28;20120;-70
2023/04/07 04:37:08;;;;;;;35.70;19.92;;;3.70;99.90;;;;;;5031094;28;20053;-70
2023/04/07 04:39:33;;;;;;;36.80;19.55;;;3.70;99.90;;;;;;5032494;28;20029;-69
2023/04/07 04:42:00;;;;;;;32.92;18.98;;;3.70;99.90;;;;;;5030663;28;20033;-69
2023/04/07 04:44:25;;;;;;;38.45;19.52;;;3.70;99.90;;;;;;5032059;28;20048;-71
2023/04/07 04:46:51;;;;;;;38.42;20.27;;;3.60;99.90;;;;;;5032360;28;20021;-71
2023/04/07 04:49:17;;;;;;;39.30;20.20;;;3.70;99.90;;;;;;5030708;28;20065;-69
2023/04/07 04:51:44;;;;;;;36.25;19.77;;;3.70;99.90;;;;;;5031869;28;20072;-71
2023/04/07 04:54:09;;;;;;;36.63;19.95;;;3.60;99.90;;;;;;5028396;28;20101;-71
2023/04/07 04:56:35;;;;;;;34.70;19.00;;;3.70;99.90;;;;;;5031847;28;20038;-70
2023/04/07 04:59:02;;;;;;;35.08;19.70;;;3.60;99.90;;;;;;5030570;28;20017;-70
2023/04/07 05:01:28;;;;;;;39.65;20.83;;;3.60;99.90;;;;;;5031832;28;20132;-72
2023/04/07 05:03:53;;;;;;;38.03;20.63;;;3.70;99.90;;;;;;5031964;28;20026;-70
2023/04/07 05:06:20;;;;;;;36.17;21.00;;;3.60;99.90;;;;;;5032503;28;20642;-69
2023/04/07 05:08:45;;;;;;;34.67;19.58;;;3.60;99.90;;;;;;5031090;28;20046;-71
2023/04/07 05:11:11;;;;;;;38.20;21.00;;;3.60;99.90;;;;;;5032358;28;20037;-70
2023/04/07 05:13:37;;;;;;;35.95;20.35;;;3.60;99.90;;;;;;5032025;28;20021;-71
2023/04/07 05:16:03;;;;;;;39.97;20.55;;;3.60;99.90;;;;;;5032000;28;20052;-70
2023/04/07 05:18:28;;;;;;;39.00;20.52;;;3.70;99.90;;;;;;5031879;28;20034;-70
2023/04/07 05:20:54;;;;;;;40.53;20.13;;;3.70;99.90;;;;;;5031379;28;20156;-71
2023/04/07 05:23:19;;;;;;;41.33;20.90;;;3.70;99.90;;;;;;5032021;28;20022;-70
2023/04/07 05:25:45;;;;;;;34.90;19.55;;;3.70;99.90;;;;;;5032340;28;20021;-70
2023/04/07 05:28:10;;;;;;;37.33;19.40;;;3.70;99.90;;;;;;5031882;28;20022;-70
2023/04/07 05:30:36;;;;;;;38.05;20.73;;;3.70;99.90;;;;;;5031836;28;20057;-71
2023/04/07 05:33:01;;;;;;;35.08;19.20;;;3.80;99.90;;;;;;5032094;28;20041;-70
2023/04/07 05:35:27;;;;;;;34.88;19.30;;;3.80;99.90;;;;;;5031312;28;20032;-70
2023/04/07 05:37:52;;;;;;;35.47;18.63;;;3.80;99.90;;;;;;5031646;28;20521;-69
2023/04/07 05:40:19;;;;;;;36.75;19.40;;;3.80;99.90;;;;;;5032171;28;20029;-69
2023/04/07 05:42:44;;;;;;;36.22;18.33;;;3.80;99.90;;;;;;5032079;28;20033;-71
2023/04/07 05:45:10;;;;;;;35.63;18.10;;;3.90;99.90;;;;;;5034773;28;20061;-69
2023/04/07 05:47:36;;;;;;;33.60;19.35;;;3.90;99.90;;;;;;5036025;28;20036;-69
2023/04/07 05:50:01;;;;;;;34.65;19.17;;;4.00;99.90;;;;;;5035567;28;20030;-69
2023/04/07 05:52:27;;;;;;;35.17;17.67;;;4.10;99.90;;;;;;5035212;28;20029;-69
2023/04/07 05:54:52;;;;;;;35.20;17.60;;;4.10;99.90;;;;;;5035163;28;20030;-70
2023/04/07 05:57:18;;;;;;;30.77;17.63;;;4.10;99.90;;;;;;5034841;28;20026;-69
2023/04/07 05:59:44;;;;;;;31.88;18.13;;;4.20;99.90;;;;;;5034273;28;20022;-70
2023/04/07 06:02:09;;;;;;;33.85;18.23;;;4.20;99.90;;;;;;5035147;28;20035;-70
2023/04/07 06:04:35;;;;;;;35.30;18.45;;;4.20;99.90;;;;;;5035554;28;20057;-70
2023/04/07 06:07:01;;;;;;;33.90;17.40;;;4.30;99.90;;;;;;5035202;28;20101;-70
2023/04/07 06:09:27;;;;;;;29.45;17.45;;;4.30;99.90;;;;;;5035035;28;20405;-69
2023/04/07 06:11:52;;;;;;;31.13;18.15;;;4.30;99.90;;;;;;5035211;28;20029;-70
2023/04/07 06:14:18;;;;;;;35.97;18.63;;;4.40;99.90;;;;;;5034992;28;20024;-69
2023/04/07 06:16:44;;;;;;;29.75;18.02;;;4.50;99.90;;;;;;5035026;28;20037;-70
2023/04/07 06:19:10;;;;;;;31.67;17.85;;;4.50;99.90;;;;;;5034704;28;20018;-69
2023/04/07 06:21:35;;;;;;;40.30;22.23;;;4.60;99.90;;;;;;5035155;28;20041;-70
2023/04/07 06:24:01;;;;;;;34.15;18.88;;;4.70;99.90;;;;;;5035158;28;20026;-70
2023/04/07 06:26:27;;;;;;;31.08;18.00;;;4.70;99.90;;;;;;5034740;28;20058;-70
2023/04/07 06:28:53;;;;;;;29.88;17.75;;;4.80;99.90;;;;;;5034785;28;20038;-69
2023/04/07 06:31:18;;;;;;;33.97;18.17;;;4.90;99.90;;;;;;5034209;28;20121;-70
2023/04/07 06:33:44;;;;;;;31.17;17.75;;;5.00;99.90;;;;;;5033711;28;20496;-70
2023/04/07 06:36:10;;;;;;;34.72;18.02;;;5.10;99.90;;;;;;5034774;28;20025;-70
2023/04/07 06:38:36;;;;;;;29.00;17.80;;;5.20;99.90;;;;;;5035104;28;20021;-70
2023/04/07 06:41:02;;;;;;;29.92;17.10;;;5.20;99.90;;;;;;5034946;28;20036;-69
2023/04/07 06:43:27;;;;;;;30.15;17.40;;;5.30;99.90;;;;;;5034377;28;20104;-70
2023/04/07 06:45:53;;;;;;;29.38;17.23;;;5.40;99.90;;;;;;5034415;28;20048;-70
2023/04/07 06:48:19;;;;;;;32.58;17.75;;;5.50;99.90;;;;;;5034838;28;20036;-70
2023/04/07 06:50:51;;;;;;;29.95;17.75;;;5.50;99.90;;;;;;5034694;28;20021;-69
2023/04/07 06:53:16;;;;;;;28.55;16.83;;;5.60;99.90;;;;;;5034790;28;20029;-70
2023/04/07 06:55:42;;;;;;;28.35;16.80;;;5.80;99.90;;;;;;5033328;28;20025;-70
2023/04/07 06:58:08;;;;;;;32.10;17.23;;;5.90;99.90;;;;;;5034238;28;20018;-70
2023/04/07 07:00:34;;;;;;;28.67;16.50;;;5.90;99.90;;;;;;5034344;28;20017;-69
2023/04/07 07:03:00;;;;;;;28.30;17.17;;;6.10;99.90;;;;;;5033454;28;20085;-70
2023/04/07 07:05:26;;;;;;;31.98;17.67;;;6.20;99.90;;;;;;5030693;28;20049;-70
2023/04/07 07:07:51;;;;;;;28.30;16.67;;;6.30;99.90;;;;;;5034212;28;20026;-71
2023/04/07 07:10:19;;;;;;;27.27;16.85;;;6.40;99.90;;;;;;5031253;28;20100;-71
2023/04/07 07:12:44;;;;;;;29.98;17.60;;;6.50;99.90;;;;;;5030387;28;20022;-70
2023/04/07 07:15:10;;;;;;;27.05;15.93;;;6.70;99.90;;;;;;5030878;28;20033;-69
2023/04/07 07:17:36;;;;;;;26.80;16.15;;;6.80;99.90;;;;;;5029227;28;20042;-69
2023/04/07 07:20:01;;;;;;;30.23;16.83;;;7.00;99.90;;;;;;5031614;28;20072;-71
2023/04/07 07:22:27;;;;;;;28.15;16.73;;;7.10;99.90;;;;;;5031916;28;20030;-69
2023/04/07 07:24:52;;;;;;;28.58;16.60;;;7.10;99.90;;;;;;5030195;28;20035;-70
2023/04/07 07:27:18;;;;;;;28.75;16.80;;;7.30;99.90;;;;;;5029408;28;20033;-70
2023/04/07 07:29:43;;;;;;;30.20;16.85;;;7.30;99.90;;;;;;5028515;28;20044;-70
2023/04/07 07:32:09;;;;;;;26.58;15.38;;;7.50;99.90;;;;;;5030496;28;20026;-70
2023/04/07 07:34:34;;;;;;;25.77;15.82;;;7.60;99.90;;;;;;5032664;28;20060;-70
2023/04/07 07:37:00;;;;;;;27.27;15.45;;;7.70;99.90;;;;;;5029226;28;20030;-70
2023/04/07 07:39:28;;;;;;;23.98;15.57;;;7.80;99.90;;;;;;5031080;28;20056;-69
2023/04/07 07:41:54;;;;;;;27.73;15.07;;;7.90;99.90;;;;;;5029330;28;20034;-70
2023/04/07 07:44:21;;;;;;;27.83;15.90;;;8.00;99.90;;;;;;5028872;28;20099;-71
2023/04/07 07:46:47;;;;;;;26.45;15.75;;;8.20;99.90;;;;;;5029029;28;20041;-71
2023/04/07 07:49:13;;;;;;;25.08;15.18;;;8.30;99.90;;;;;;5026449;28;20561;-70
2023/04/07 07:51:39;;;;;;;27.50;15.40;;;8.40;99.90;;;;;;5030923;28;20021;-70
2023/04/07 07:54:04;;;;;;;26.80;15.63;;;8.50;99.90;;;;;;5031492;28;20026;-70
2023/04/07 07:56:30;;;;;;;25.55;14.90;;;8.70;99.90;;;;;;5029162;28;20077;-71
2023/04/07 07:58:56;;;;;;;23.95;14.23;;;8.80;99.90;;;;;;5031019;28;20033;-71
2023/04/07 08:01:21;;;;;;;22.50;14.20;;;8.90;99.90;;;;;;5028808;28;20026;-71
2023/04/07 08:03:47;;;;;;;24.88;14.32;;;9.00;99.90;;;;;;5028674;28;20030;-71
2023/04/07 08:06:12;;;;;;;21.63;14.00;;;9.10;99.90;;;;;;5029452;28;20033;-70
2023/04/07 08:08:38;;;;;;;25.58;13.85;;;9.10;99.90;;;;;;5027724;28;20054;-72
2023/04/07 08:11:04;;;;;;;23.50;13.77;;;9.20;99.90;;;;;;5027004;28;20041;-70
2023/04/07 08:13:32;;;;;;;24.83;13.45;;;9.40;99.90;;;;;;5024249;28;20090;-71
2023/04/07 08:15:58;;;;;;;23.20;13.93;;;9.60;99.90;;;;;;5029556;28;20097;-71
2023/04/07 08:18:24;;;;;;;25.08;14.82;;;9.80;99.90;;;;;;5028288;28;20071;-70
2023/04/07 08:20:50;;;;;;;21.65;13.32;;;10.00;99.90;;;;;;5029751;28;20029;-70
2023/04/07 08:23:16;;;;;;;23.85;13.20;;;10.20;99.90;;;;;;5026568;28;20030;-71
2023/04/07 08:25:41;;;;;;;22.00;12.95;;;10.40;99.90;;;;;;5027802;28;20029;-71
2023/04/07 08:28:07;;;;;;;21.33;13.38;;;10.60;99.90;;;;;;5028785;28;20037;-72
2023/04/07 08:30:33;;;;;;;20.25;13.10;;;10.70;99.90;;;;;;5027835;28;20040;-71
2023/04/07 08:32:58;;;;;;;21.45;13.05;;;10.80;99.90;;;;;;5028413;28;20029;-70
2023/04/07 08:35:24;;;;;;;18.08;12.80;;;10.90;99.90;;;;;;5029788;28;20036;-70
2023/04/07 08:37:49;;;;;;;20.58;12.18;;;11.10;99.90;;;;;;5029239;28;20022;-71
2023/04/07 08:40:16;;;;;;;24.95;13.15;;;11.20;99.90;;;;;;5029830;28;20028;-71
2023/04/07 08:42:45;;;;;;;20.85;12.52;;;11.40;99.90;;;;;;5027200;28;20148;-70
2023/04/07 08:45:12;;;;;;;18.83;11.90;;;11.50;99.90;;;;;;5032019;28;20580;-71
2023/04/07 08:47:40;;;;;;;18.42;12.27;;;11.60;99.90;;;;;;5030386;28;20049;-73
2023/04/07 08:50:08;;;;;;;21.27;11.98;;;11.90;99.90;;;;;;5032282;28;20077;-71
2023/04/07 08:52:45;;;;;;;20.25;12.05;;;12.00;99.90;;;;;;5027025;28;20294;-70
2023/04/07 08:55:11;;;;;;;18.40;12.27;;;12.20;99.90;;;;;;5031036;28;20057;-71
2023/04/07 08:57:37;;;;;;;17.20;11.95;;;12.30;99.90;;;;;;5030404;28;20052;-70
2023/04/07 09:00:06;;;;;;;16.77;11.57;;;12.40;99.90;;;;;;5030809;28;20853;-70
2023/04/07 09:02:33;;;;;;;17.33;11.98;;;12.40;99.90;;;;;;5029757;28;20036;-71
2023/04/07 09:04:59;;;;;;;17.52;11.60;;;12.60;99.90;;;;;;5031099;28;20022;-67
2023/04/07 09:07:25;;;;;;;19.25;11.77;;;12.70;99.90;;;;;;5031712;28;20134;-67
2023/04/07 09:09:51;;;;;;;19.58;12.20;;;12.80;99.90;;;;;;5032383;28;20106;-68
2023/04/07 09:12:17;;;;;;;19.08;12.15;;;12.70;99.90;;;;;;5027640;28;20395;-68
2023/04/07 09:14:42;;;;;;;18.30;11.75;;;12.70;99.90;;;;;;5028464;28;20030;-68
2023/04/07 09:17:08;;;;;;;17.08;10.95;;;12.70;99.90;;;;;;5030170;28;20474;-70
2023/04/07 09:19:33;;;;;;;17.58;11.85;;;12.80;99.90;;;;;;5027357;28;20029;-69
2023/04/07 09:21:59;;;;;;;19.40;11.52;;;12.90;99.90;;;;;;5028972;28;20064;-68
2023/04/07 09:24:27;;;;;;;18.48;11.35;;;12.90;99.90;;;;;;5029693;28;20057;-68
2023/04/07 09:27:18;;;;;;;17.63;12.27;;;12.90;99.90;;;;;;5029332;28;20501;-67
2023/04/07 09:29:46;;;;;;;17.45;11.82;;;13.00;99.90;;;;;;5027473;28;20049;-68
2023/04/07 09:32:20;;;;;;;18.45;11.77;;;13.10;99.90;;;;;;5020436;28;20021;-69
2023/04/07 09:34:46;;;;;;;21.13;11.77;;;13.10;99.90;;;;;;5025316;28;20112;-69
2023/04/07 09:37:21;;;;;;;17.92;11.27;;;13.20;99.90;;;;;;5029180;28;20076;-69
2023/04/07 09:39:52;;;;;;;15.90;11.13;;;13.40;99.90;;;;;;5030477;28;20017;-70
2023/04/07 09:42:19;;;;;;;17.73;11.32;;;13.60;99.90;;;;;;5029645;28;20426;-69
2023/04/07 09:44:45;;;;;;;26.00;11.13;;;13.80;99.90;;;;;;5030974;28;20087;-68
2023/04/07 09:47:11;;;;;;;17.10;11.35;;;14.00;99.90;;;;;;5031460;28;20483;-70
2023/04/07 09:49:52;;;;;;;17.58;11.15;;;14.10;99.90;;;;;;5029229;28;20482;-69
2023/04/07 09:52:19;;;;;;;17.83;10.70;;;14.30;99.90;;;;;;5030536;28;20033;-69
2023/04/07 09:54:45;;;;;;;17.67;11.68;;;14.30;99.90;;;;;;5027504;28;20017;-70
2023/04/07 09:57:12;;;;;;;17.27;10.82;;;14.40;99.90;;;;;;5030638;28;20089;-71
2023/04/07 09:59:44;;;;;;;20.08;11.48;;;14.50;99.90;;;;;;5029385;28;20116;-71
2023/04/07 10:02:10;;;;;;;20.13;10.95;;;14.70;99.90;;;;;;5031220;28;20053;-70
2023/04/07 10:04:37;;;;;;;15.85;10.77;;;14.80;99.90;;;;;;5030184;28;20032;-70
2023/04/07 10:07:04;;;;;;;16.25;10.80;;;15.00;99.90;;;;;;5029078;28;20018;-70
2023/04/07 10:09:30;;;;;;;18.50;10.27;;;15.10;99.90;;;;;;5030464;28;20058;-69
2023/04/07 10:11:58;;;;;;;21.23;10.98;;;15.20;99.90;;;;;;5029864;28;20030;-70
2023/04/07 10:14:29;;;;;;;14.93;10.20;;;15.20;99.90;;;;;;5027588;28;20022;-69
2023/04/07 10:16:56;;;;;;;15.93;10.02;;;15.20;99.90;;;;;;5028536;28;20030;-69
2023/04/07 10:19:23;;;;;;;14.15;10.68;;;15.10;99.90;;;;;;5030175;28;20072;-69
2023/04/07 10:21:51;;;;;;;20.40;11.15;;;14.90;99.90;;;;;;5030937;28;20018;-70
2023/04/07 10:24:26;;;;;;;17.95;11.48;;;14.80;99.90;;;;;;5030286;28;20489;-70
2023/04/07 10:27:03;;;;;;;15.27;10.43;;;14.70;99.90;;;;;;5031223;28;20101;-69
2023/04/07 10:29:36;;;;;;;15.63;10.18;;;14.80;99.90;;;;;;5030333;28;20498;-70
2023/04/07 10:32:02;;;;;;;19.25;10.55;;;14.90;99.90;;;;;;5033765;28;20025;-69
2023/04/07 10:34:47;;;;;;;18.48;10.13;;;15.10;99.90;;;;;;5034460;28;20029;-71
2023/04/07 10:37:16;;;;;;;14.88;10.05;;;15.30;99.90;;;;;;5034840;28;20052;-71
2023/04/07 10:39:42;;;;;;;16.50;10.38;;;15.50;99.90;;;;;;5032927;28;20026;-71
2023/04/07 10:42:36;;;;;;;13.30;9.38;;;15.60;99.90;;;;;;5033729;28;20079;-71
2023/04/07 10:45:03;;;;;;;16.75;10.30;;;15.90;99.90;;;;;;5032858;28;20033;-71
2023/04/07 10:47:29;;;;;;;14.55;10.57;;;16.10;99.90;;;;;;5033477;28;20042;-70
2023/04/07 10:50:18;;;;;;;13.88;9.30;;;16.20;99.90;;;;;;5033612;28;20053;-72
2023/04/07 10:52:48;;;;;;;15.02;10.18;;;16.30;99.90;;;;;;5034229;28;20057;-71
2023/04/07 10:55:33;;;;;;;15.05;10.27;;;16.50;99.90;;;;;;5033444;28;20029;-71
2023/04/07 10:58:17;;;;;;;21.02;10.27;;;16.50;99.90;;;;;;5031878;28;20029;-69
2023/04/07 11:01:03;;;;;;;16.75;10.07;;;16.60;99.90;;;;;;5034040;28;20040;-71
2023/04/07 11:03:34;;;;;;;14.88;10.10;;;16.70;99.90;;;;;;5033704;28;20033;-71
2023/04/07 11:06:08;;;;;;;17.00;10.18;;;16.80;99.90;;;;;;5033702;28;20446;-71
2023/04/07 11:08:35;;;;;;;16.25;10.57;;;16.80;99.90;;;;;;5028966;28;20042;-72
2023/04/07 11:11:01;;;;;;;15.15;10.07;;;16.90;99.90;;;;;;5031262;28;20106;-70
2023/04/07 11:13:26;;;;;;;16.85;10.27;;;16.90;99.90;;;;;;5033743;28;20030;-72
2023/04/07 11:15:52;;;;;;;13.18;9.80;;;17.00;99.90;;;;;;5033517;28;20029;-70
2023/04/07 11:18:23;;;;;;;16.73;10.32;;;17.00;99.90;;;;;;5033234;28;20014;-70
2023/04/07 11:20:53;;;;;;;14.32;10.25;;;17.20;99.90;;;;;;5032834;28;20041;-71
2023/04/07 11:23:22;;;;;;;16.02;9.88;;;17.20;99.90;;;;;;5029755;28;20041;-69
2023/04/07 11:25:49;;;;;;;13.88;9.52;;;17.40;99.90;;;;;;5032726;28;20025;-70
2023/04/07 11:28:15;;;;;;;14.20;10.30;;;17.30;99.90;;;;;;5032677;28;20018;-70
2023/04/07 11:30:52;;;;;;;18.73;10.18;;;17.30;99.90;;;;;;5033103;28;20025;-70
2023/04/07 11:33:30;;;;;;;18.30;10.20;;;17.30;99.90;;;;;;5033484;28;20056;-70
2023/04/07 11:36:00;;;;;;;21.58;9.90;;;17.50;99.90;;;;;;5023914;28;20068;-70
2023/04/07 11:38:29;;;;;;;14.13;9.88;;;17.60;99.90;;;;;;5029456;28;20029;-70
2023/04/07 11:40:55;;;;;;;15.55;10.50;;;17.70;99.90;;;;;;5030231;28;20247;-71
2023/04/07 11:43:22;;;;;;;13.15;9.93;;;17.80;99.90;;;;;;5029682;28;20021;-71
2023/04/07 11:46:12;;;;;;;15.52;9.95;;;18.00;99.90;;;;;;5030891;28;20044;-71
2023/04/07 11:48:40;;;;;;;16.33;9.48;;;18.10;99.90;;;;;;5031818;28;20045;-72
2023/04/07 11:51:13;;;;;;;13.38;9.07;;;18.30;99.90;;;;;;5031346;28;20033;-72
2023/04/07 11:53:39;;;;;;;12.90;9.23;;;18.50;99.90;;;;;;5031243;28;20364;-71
2023/04/07 11:56:08;;;;;;;17.38;9.68;;;18.50;99.90;;;;;;5031238;28;20032;-71
2023/04/07 11:58:35;;;;;;;17.65;10.50;;;18.50;99.90;;;;;;5031364;28;20059;-72
2023/04/07 12:01:05;;;;;;;13.82;9.30;;;18.70;99.90;;;;;;5030903;28;20025;-71
2023/04/07 12:03:32;;;;;;;16.55;9.95;;;18.80;99.90;;;;;;5031268;28;20029;-71
2023/04/07 12:05:59;;;;;;;15.93;9.95;;;18.80;99.90;;;;;;5030807;28;20394;-70
2023/04/07 12:08:41;;;;;;;15.63;9.95;;;18.80;99.90;;;;;;5030174;28;20506;-70
2023/04/07 12:11:08;;;;;;;14.18;9.98;;;18.90;99.40;;;;;;5030327;28;20021;-72
2023/04/07 12:13:34;;;;;;;15.27;9.63;;;18.90;99.90;;;;;;5030521;28;20758;-70
2023/04/07 12:16:00;;;;;;;16.20;10.15;;;19.00;99.90;;;;;;5028373;28;20029;-71
2023/04/07 12:18:27;;;;;;;14.13;9.15;;;19.20;99.90;;;;;;5028391;28;20025;-72
2023/04/07 12:20:53;;;;;;;14.07;9.75;;;19.20;99.90;;;;;;5028840;28;20028;-70
2023/04/07 12:23:18;;;;;;;14.65;9.27;;;19.20;99.90;;;;;;5027997;28;20034;-71
2023/04/07 12:25:44;;;;;;;16.17;9.55;;;19.20;99.90;;;;;;5024759;28;20043;-71
2023/04/07 12:28:09;;;;;;;13.70;9.40;;;19.30;99.30;;;;;;5027850;28;20025;-71
2023/04/07 12:30:35;;;;;;;13.43;9.13;;;19.10;99.90;;;;;;5032658;28;20033;-71
2023/04/07 12:33:02;;;;;;;12.60;9.18;;;19.10;99.80;;;;;;5031241;28;20033;-71
2023/04/07 12:35:28;;;;;;;16.27;9.38;;;19.10;99.90;;;;;;5030535;28;20018;-71